createdAt,value
2023-03-10T00:05:00.433Z,21.6
2023-03-10T00:10:54.704Z,21.4
2023-03-10T00:16:47.810Z,22.8
2023-03-10T00:22:40.784Z,22.6
2023-03-10T00:28:18.154Z,21.8
2023-03-10T00:34:12.276Z,21.4
2023-03-10T00:39:50.649Z,22.2
2023-03-10T00:45:43.987Z,22.9
2023-03-10T00:51:05.605Z,21.9
2023-03-10T00:56:43.026Z,21.6
2023-03-10T01:02:51.326Z,21.3
2023-03-10T01:08:44.457Z,22.6
2023-03-10T01:14:37.973Z,22.4
2023-03-10T01:20:15.469Z,21.7
2023-03-10T01:25:52.324Z,21.5
2023-03-10T01:31:45.900Z,21.9
2023-03-10T01:37:08.257Z,23.1
2023-03-10T01:42:47.081Z,22.1
2023-03-10T01:48:40.508Z,21.6
2023-03-10T01:54:33.413Z,21.4
2023-03-10T02:00:26.260Z,22.3
2023-03-10T02:06:04.107Z,22.6
2023-03-10T02:11:15.006Z,21.9
2023-03-10T02:17:07.670Z,21.6
2023-03-10T02:22:45.543Z,21.4
2023-03-10T02:28:47.281Z,22.8
2023-03-10T02:34:51.522Z,22.3
2023-03-10T02:40:29.009Z,21.8
2023-03-10T02:46:06.283Z,21.4
2023-03-10T02:51:28.668Z,22.1
2023-03-10T02:57:06.596Z,23.3
2023-03-10T03:02:43.909Z,22.2
2023-03-10T03:08:20.466Z,21.7
2023-03-10T03:13:42.404Z,21.4
2023-03-10T03:19:37.847Z,22.1
2023-03-10T03:24:59.394Z,23.3
2023-03-10T03:30:55.078Z,22.2
2023-03-10T03:36:48.994Z,21.7
2023-03-10T03:42:26.820Z,21.4
2023-03-10T03:48:22.022Z,22.3
2023-03-10T03:54:16.044Z,22.8
2023-03-10T04:00:08.298Z,21.9
2023-03-10T04:05:30.629Z,21.6
2023-03-10T04:11:22.918Z,21.4
2023-03-10T04:17:16.183Z,22.5
2023-03-10T04:22:53.713Z,22.5
2023-03-10T04:28:47.569Z,21.9
2023-03-10T04:34:34.341Z,21.5
2023-03-10T04:40:11.235Z,21.4
2023-03-10T04:46:15.823Z,22.8
2023-03-10T04:51:51.741Z,22.4
2023-03-10T04:57:13.479Z,21.8
2023-03-10T05:03:15.674Z,21.5
2023-03-10T05:09:10.190Z,21.6
2023-03-10T05:15:02.416Z,22.6
2023-03-10T05:20:55.497Z,22.3
2023-03-10T05:26:17.502Z,21.8
2023-03-10T05:31:55.927Z,21.7
2023-03-10T05:37:17.986Z,21.8
2023-03-10T05:43:10.619Z,23.4
2023-03-10T05:49:03.266Z,22.9
2023-03-10T05:54:43.294Z,22
2023-03-10T06:00:35.942Z,21.5
2023-03-10T06:06:17.267Z,21.3
2023-03-10T06:12:10.872Z,21
2023-03-10T06:18:04.088Z,21.9
2023-03-10T06:23:57.362Z,21.9
2023-03-10T06:29:50.160Z,21.4
2023-03-10T06:41:06.817Z,21.1
2023-03-10T06:46:45.623Z,20.9
2023-03-10T06:52:22.987Z,20.7
2023-03-10T06:58:00.728Z,21.3
2023-03-10T07:03:22.417Z,22.1
2023-03-10T07:09:00.647Z,21.6
2023-03-10T07:14:55.409Z,21.3
2023-03-10T07:20:33.756Z,21.2
2023-03-10T07:26:27.327Z,21.1
2023-03-10T07:32:20.656Z,20.9
2023-03-10T07:38:13.484Z,21.8
2023-03-10T07:44:07.422Z,22.1
2023-03-10T07:49:44.933Z,21.6
2023-03-10T07:55:22.865Z,21.5
2023-03-10T08:01:15.404Z,21.3
2023-03-10T08:07:09.802Z,21.2
2023-03-10T08:13:02.856Z,21.9
2023-03-10T08:18:41.670Z,22.4
2023-03-10T08:24:03.696Z,21.8
2023-03-10T08:29:57.486Z,21.6
2023-03-10T08:35:54.967Z,21.3
2023-03-10T08:41:54.091Z,21.4
2023-03-10T08:47:54.135Z,22.6
2023-03-10T08:53:16.504Z,21.9
2023-03-10T08:59:12.900Z,21.6
2023-03-10T09:05:10.012Z,21.4
2023-03-10T09:11:01.821Z,21.4
2023-03-10T09:17:11.983Z,21.9
2023-03-10T09:23:06.264Z,22.6
2023-03-10T09:28:58.895Z,21.9
2023-03-10T09:34:51.679Z,21.8
2023-03-10T09:40:57.203Z,21.5
2023-03-10T09:47:05.668Z,21.8
2023-03-10T09:52:57.276Z,22.9
2023-03-10T09:59:00.711Z,22.1
2023-03-10T10:05:01.391Z,21.2
2023-03-10T10:11:06.497Z,20.3
2023-03-10T10:17:52.775Z,19.9
2023-03-10T10:24:04.534Z,21.4
2023-03-10T10:29:59.342Z,21.5
2023-03-10T10:35:57.356Z,21.5
2023-03-10T10:41:57.091Z,21.5
2023-03-10T10:47:35.290Z,21.3
2023-03-10T10:53:12.766Z,22.9
2023-03-10T10:59:07.162Z,22.7
2023-03-10T11:05:00.119Z,22
2023-03-10T11:10:52.896Z,21.6
2023-03-10T11:16:15.249Z,21.4
2023-03-10T11:22:10.156Z,21.2
2023-03-10T11:28:02.856Z,22.7
2023-03-10T11:33:56.755Z,22.4
2023-03-10T11:39:41.857Z,21.9
2023-03-10T11:45:35.341Z,21.8
2023-03-10T11:51:26.506Z,21.3
2023-03-10T11:57:19.196Z,21.1
2023-03-10T12:03:13.328Z,20.9
2023-03-10T12:08:51.814Z,20.9
2023-03-10T12:14:45.032Z,22.6
2023-03-10T12:20:38.973Z,22.4
2023-03-10T12:26:30.086Z,21.8
2023-03-10T12:32:23.011Z,21.4
2023-03-10T12:43:55.193Z,21.4
2023-03-10T12:49:48.815Z,22.8
2023-03-10T12:55:43.004Z,21.9
2023-03-10T13:01:40.533Z,21.5
2023-03-10T13:07:20.953Z,21.4
2023-03-10T13:18:36.971Z,22.4
2023-03-10T13:23:58.727Z,22.2
2023-03-10T13:29:53.578Z,22
2023-03-10T13:35:46.418Z,21.6
2023-03-10T13:41:22.959Z,21.4
2023-03-10T13:47:13.883Z,21.2
2023-03-10T13:53:05.420Z,20.9
2023-03-10T13:58:56.788Z,22.3
2023-03-10T14:04:53.303Z,22.6
2023-03-10T14:10:47.113Z,22.1
2023-03-10T14:16:39.902Z,21.9
2023-03-10T14:22:17.476Z,21.8
2023-03-10T14:27:23.354Z,21.3
2023-03-10T14:32:47.885Z,20.9
2023-03-10T14:38:29.187Z,20.6
2023-03-10T14:44:22.153Z,20.6
2023-03-10T14:50:17.372Z,20.6
2023-03-10T14:56:21.709Z,20.3
2023-03-10T15:02:14.486Z,20.2
2023-03-10T15:08:03.676Z,19.9
2023-03-10T15:14:21.288Z,19.9
2023-03-10T15:20:14.809Z,19.9
2023-03-10T15:25:51.476Z,20
2023-03-10T15:31:44.234Z,20
2023-03-10T15:37:39.594Z,19.9
2023-03-10T15:43:44.550Z,19.9
2023-03-10T15:49:39.095Z,19.9
2023-03-10T15:55:31.422Z,19.8
2023-03-10T16:01:24.216Z,19.8
2023-03-10T16:07:16.954Z,19.8
2023-03-10T16:13:09.852Z,19.7
2023-03-10T16:18:48.053Z,19.7
2023-03-10T16:24:25.229Z,19.7
2023-03-10T16:30:19.214Z,19.6
2023-03-10T16:36:11.905Z,19.6
2023-03-10T16:42:05.341Z,19.6
2023-03-10T16:47:42.831Z,19.6
2023-03-10T16:52:33.239Z,19.5
2023-03-10T16:57:54.914Z,19.6
2023-03-10T17:03:17.468Z,19.5
2023-03-10T17:09:18.801Z,19.4
2023-03-10T17:15:14.695Z,19.4
2023-03-10T17:20:53.403Z,19.3
2023-03-10T17:26:47.806Z,19.3
2023-03-10T17:32:42.117Z,19.3
2023-03-10T17:38:34.167Z,19.3
2023-03-10T17:44:40.707Z,19.3
2023-03-10T17:50:33.698Z,19.2
2023-03-10T17:56:11.105Z,19.2
2023-03-10T18:02:04.295Z,19.1
2023-03-10T18:07:59.775Z,19.1
2023-03-10T18:13:52.187Z,19.1
2023-03-10T18:19:44.529Z,19.1
2023-03-10T18:25:21.640Z,19.1
2023-03-10T18:31:14.569Z,19
2023-03-10T18:37:08.132Z,18.9
2023-03-10T18:43:01.527Z,18.9
2023-03-10T18:48:38.269Z,18.9
2023-03-10T18:54:30.436Z,18.9
2023-03-10T19:00:07.914Z,18.9
2023-03-10T19:06:00.658Z,18.9
2023-03-10T19:11:55.037Z,18.9
2023-03-10T19:17:48.319Z,18.9
2023-03-10T19:23:41.518Z,18.9
2023-03-10T19:29:34.727Z,19
2023-03-10T19:35:12.471Z,18.9
2023-03-10T19:40:34.581Z,18.9
2023-03-10T19:46:27.853Z,18.8
2023-03-10T19:52:21.138Z,18.8
2023-03-10T19:57:58.243Z,18.8
2023-03-10T20:03:37.390Z,18.8
2023-03-10T20:09:15.083Z,18.8
2023-03-10T20:15:07.504Z,18.8
2023-03-10T20:21:00.299Z,18.8
2023-03-10T20:26:21.533Z,18.8
2023-03-10T20:37:51.533Z,19.6
2023-03-10T20:43:29.951Z,22.2
2023-03-10T20:49:23.637Z,22.9
2023-03-10T20:55:16.266Z,21.8
2023-03-10T21:01:09.182Z,22.3
2023-03-10T21:06:47.552Z,22.1
2023-03-10T21:12:39.859Z,21.6
2023-03-10T21:18:17.714Z,21.4
2023-03-10T21:29:03.664Z,20.9
2023-03-10T21:34:56.522Z,20.9
2023-03-10T21:40:49.403Z,20.9
2023-03-10T21:46:42.008Z,22.4
2023-03-10T21:52:34.750Z,23.3
2023-03-10T21:58:28.372Z,22.4
2023-03-10T22:03:49.186Z,21.7
2023-03-10T22:09:42.085Z,23.4
2023-03-10T22:15:34.535Z,23.1
2023-03-10T22:21:11.147Z,22.2
2023-03-10T22:27:03.733Z,22.2
2023-03-10T22:32:56.583Z,23.4
2023-03-10T22:38:49.080Z,23
2023-03-10T22:44:10.517Z,22.3
2023-03-10T22:49:33.182Z,22.1
2023-03-10T22:55:25.887Z,23.3
2023-03-10T23:01:03.537Z,23.3
2023-03-10T23:06:25.468Z,22.5
2023-03-10T23:12:02.032Z,22.1
2023-03-10T23:18:08.542Z,22.3
2023-03-10T23:23:46.088Z,23.7
2023-03-10T23:29:39.169Z,22.9
2023-03-10T23:35:16.869Z,22.3
2023-03-10T23:40:38.382Z,21.9
2023-03-10T23:46:16.211Z,22.3
2023-03-10T23:51:54.383Z,23.6
2023-03-10T23:57:31.972Z,22.6
